createdAt,value
2018-06-04T00:00:21.988Z,12.70
2018-06-04T00:02:49.887Z,12.70
2018-06-04T00:05:17.766Z,12.70
2018-06-04T00:07:45.576Z,12.60
2018-06-04T00:10:13.413Z,12.60
2018-06-04T00:12:41.281Z,12.60
2018-06-04T00:17:37.015Z,12.50
2018-06-04T00:22:32.667Z,12.40
2018-06-04T00:25:00.452Z,12.40
2018-06-04T00:27:28.291Z,12.40
2018-06-04T00:29:56.069Z,12.40
2018-06-04T00:32:23.914Z,12.30
2018-06-04T00:37:19.382Z,12.20
2018-06-04T00:39:47.242Z,12.20
2018-06-04T00:42:15.040Z,12.20
2018-06-04T00:44:42.800Z,12.20
2018-06-04T00:47:10.603Z,12.20
2018-06-04T00:49:38.664Z,12.10
2018-06-04T00:52:06.845Z,12.10
2018-06-04T00:54:34.946Z,12.10
2018-06-04T00:57:02.810Z,12.00
2018-06-04T00:59:30.542Z,12.00
2018-06-04T01:01:58.558Z,12.00
2018-06-04T01:04:27.354Z,12.00
2018-06-04T01:06:55.205Z,11.90
2018-06-04T01:09:23.069Z,11.90
2018-06-04T01:11:50.918Z,11.90
2018-06-04T01:14:19.089Z,11.90
2018-06-04T01:16:46.945Z,11.90
2018-06-04T01:19:14.781Z,11.90
2018-06-04T01:24:10.325Z,11.80
2018-06-04T01:26:38.603Z,11.80
2018-06-04T01:29:06.483Z,11.80
2018-06-04T01:31:35.165Z,11.70
2018-06-04T01:34:04.170Z,11.70
2018-06-04T01:36:31.925Z,11.60
2018-06-04T01:38:59.671Z,11.60
2018-06-04T01:41:27.573Z,11.50
2018-06-04T01:43:55.308Z,11.50
2018-06-04T01:46:23.121Z,11.50
2018-06-04T01:48:50.954Z,11.50
2018-06-04T01:51:18.785Z,11.50
2018-06-04T01:56:14.771Z,11.40
2018-06-04T01:58:42.720Z,11.40
2018-06-04T02:01:10.599Z,11.40
2018-06-04T02:03:39.917Z,11.40
2018-06-04T02:06:07.731Z,11.30
2018-06-04T02:08:35.748Z,11.30
2018-06-04T02:11:03.715Z,11.30
2018-06-04T02:13:31.704Z,11.30
2018-06-04T02:18:27.188Z,11.30
2018-06-04T02:20:55.466Z,11.30
2018-06-04T02:23:23.144Z,11.30
2018-06-04T02:25:50.922Z,11.30
2018-06-04T02:28:18.755Z,11.30
2018-06-04T02:30:46.634Z,11.40
2018-06-04T02:33:14.494Z,11.40
2018-06-04T02:35:42.222Z,11.40
2018-06-04T02:38:10.057Z,11.40
2018-06-04T02:43:05.731Z,11.50
2018-06-04T02:45:33.602Z,11.40
2018-06-04T02:48:01.605Z,11.40
2018-06-04T02:50:29.648Z,11.40
2018-06-04T02:52:57.455Z,11.50
2018-06-04T02:55:25.197Z,11.50
2018-06-04T02:57:53.127Z,11.50
2018-06-04T03:00:20.985Z,11.50
2018-06-04T03:02:48.842Z,11.50
2018-06-04T03:05:16.634Z,11.60
2018-06-04T03:07:44.444Z,11.60
2018-06-04T03:10:12.215Z,11.70
2018-06-04T03:15:09.023Z,11.80
2018-06-04T03:17:36.998Z,11.80
2018-06-04T03:20:05.039Z,11.80
2018-06-04T03:22:33.253Z,11.90
2018-06-04T03:25:01.252Z,11.90
2018-06-04T03:29:56.781Z,11.90
2018-06-04T03:37:19.922Z,11.90
2018-06-04T03:39:47.703Z,11.90
2018-06-04T03:42:15.623Z,11.90
2018-06-04T03:44:43.396Z,11.90
2018-06-04T03:47:11.140Z,11.90
2018-06-04T03:49:38.950Z,11.90
2018-06-04T03:52:07.853Z,11.90
2018-06-04T03:54:35.616Z,12.00
2018-06-04T03:57:03.453Z,12.00
2018-06-04T03:59:31.387Z,12.00
2018-06-04T04:01:59.251Z,12.00
2018-06-04T04:06:54.804Z,12.20
2018-06-04T04:09:22.989Z,12.20
2018-06-04T04:11:51.078Z,12.30
2018-06-04T04:14:19.138Z,12.50
2018-06-04T04:16:47.030Z,12.60
2018-06-04T04:19:14.996Z,12.70
2018-06-04T04:21:42.925Z,12.70
2018-06-04T04:24:11.207Z,12.70
2018-06-04T04:26:39.104Z,12.80
2018-06-04T04:29:06.955Z,12.90
2018-06-04T04:31:35.395Z,13.00
2018-06-04T04:34:03.227Z,13.10
2018-06-04T04:41:26.807Z,13.20
2018-06-04T04:43:54.633Z,13.30
2018-06-04T04:46:22.680Z,13.40
2018-06-04T04:48:50.509Z,13.50
2018-06-04T04:51:18.484Z,13.70
2018-06-04T04:53:48.410Z,13.80
2018-06-04T04:58:44.589Z,13.90
2018-06-04T05:01:12.644Z,14.00
2018-06-04T05:03:40.985Z,14.10
2018-06-04T05:06:08.851Z,14.30
2018-06-04T05:08:36.792Z,14.40
2018-06-04T05:11:04.915Z,14.40
2018-06-04T05:13:32.805Z,14.50
2018-06-04T05:16:00.690Z,14.70
2018-06-04T05:18:28.609Z,15.00
2018-06-04T05:23:24.314Z,15.40
2018-06-04T05:25:52.149Z,15.50
2018-06-04T05:28:19.966Z,15.60
2018-06-04T05:33:15.463Z,15.80
2018-06-04T05:35:43.221Z,16.00
2018-06-04T05:38:11.019Z,16.10
2018-06-04T05:43:06.788Z,16.40
2018-06-04T05:45:34.545Z,16.60
2018-06-04T05:48:02.469Z,16.90
2018-06-04T05:50:30.247Z,17.10
2018-06-04T05:55:25.905Z,17.80
2018-06-04T05:57:53.912Z,18.50
2018-06-04T06:00:21.695Z,19.20
2018-06-04T06:02:49.438Z,19.80
2018-06-04T06:05:17.723Z,20.20
2018-06-04T06:07:45.569Z,20.50
2018-06-04T06:10:13.401Z,20.80
2018-06-04T06:12:41.289Z,21.30
2018-06-04T06:15:09.506Z,21.40
2018-06-04T06:20:06.131Z,21.90
2018-06-04T06:22:33.945Z,22.50
2018-06-04T06:25:01.711Z,23.00
2018-06-04T06:27:29.466Z,23.40
2018-06-04T06:29:57.395Z,23.80
2018-06-04T06:32:25.215Z,24.20
2018-06-04T06:34:53.028Z,24.60
2018-06-04T06:37:21.000Z,24.90
2018-06-04T06:39:48.896Z,25.00
2018-06-04T06:44:44.480Z,25.60
2018-06-04T06:47:12.397Z,25.90
2018-06-04T06:49:40.225Z,26.20
2018-06-04T06:52:08.782Z,26.50
2018-06-04T06:54:36.551Z,26.70
2018-06-04T06:57:04.548Z,26.60
2018-06-04T06:59:32.432Z,26.40
2018-06-04T07:04:27.833Z,26.10
2018-06-04T07:06:55.721Z,26.00
2018-06-04T07:11:51.288Z,25.20
2018-06-04T07:14:19.160Z,25.20
2018-06-04T07:16:47.056Z,25.20
2018-06-04T07:19:14.899Z,25.30
2018-06-04T07:21:42.732Z,25.20
2018-06-04T07:24:10.590Z,24.90
2018-06-04T07:26:38.483Z,24.90
2018-06-04T07:29:06.237Z,24.90
2018-06-04T07:31:34.779Z,24.80
2018-06-04T07:34:02.595Z,24.70
2018-06-04T07:36:30.499Z,24.70
2018-06-04T07:38:58.349Z,24.90
2018-06-04T07:41:26.283Z,24.90
2018-06-04T07:43:55.119Z,24.80
2018-06-04T07:46:22.908Z,25.10
2018-06-04T07:51:18.409Z,24.90
2018-06-04T07:53:46.471Z,24.90
2018-06-04T07:56:14.715Z,24.80
2018-06-04T07:58:42.589Z,24.90
2018-06-04T08:01:10.413Z,24.90
2018-06-04T08:03:38.413Z,25.00
2018-06-04T08:06:06.232Z,24.90
2018-06-04T08:11:01.729Z,24.90
2018-06-04T08:13:30.610Z,25.00
2018-06-04T08:15:58.464Z,25.10
2018-06-04T08:18:26.369Z,25.30
2018-06-04T08:20:54.221Z,25.60
2018-06-04T08:23:22.029Z,25.30
2018-06-04T08:25:50.233Z,25.20
2018-06-04T08:28:18.099Z,25.20
2018-06-04T08:30:45.900Z,25.20
2018-06-04T08:33:14.817Z,25.20
2018-06-04T08:38:10.393Z,25.20
2018-06-04T08:40:38.282Z,25.20
2018-06-04T08:43:06.191Z,25.40
2018-06-04T08:45:34.039Z,25.40
2018-06-04T08:48:01.898Z,25.50
2018-06-04T08:52:57.591Z,25.40
2018-06-04T08:55:25.462Z,25.60
2018-06-04T08:57:53.246Z,25.70
2018-06-04T09:00:21.156Z,25.50
2018-06-04T09:02:49.041Z,25.60
2018-06-04T09:05:17.000Z,25.70
2018-06-04T09:07:44.866Z,26.10
2018-06-04T09:10:13.631Z,25.90
2018-06-04T09:15:09.404Z,26.10
2018-06-04T09:17:37.317Z,26.10
2018-06-04T09:22:32.899Z,25.90
2018-06-04T09:25:00.660Z,26.00
2018-06-04T09:27:28.506Z,26.20
2018-06-04T09:29:56.428Z,26.40
2018-06-04T09:32:24.322Z,26.40
2018-06-04T09:34:52.158Z,26.50
2018-06-04T09:37:20.132Z,26.60
2018-06-04T09:39:47.917Z,26.80
2018-06-04T09:44:43.447Z,26.50
2018-06-04T09:49:38.888Z,27.20
2018-06-04T09:52:06.681Z,27.60
2018-06-04T09:54:34.524Z,27.50
2018-06-04T09:57:02.501Z,27.30
2018-06-04T09:59:30.276Z,27.00
2018-06-04T10:01:58.089Z,26.70
2018-06-04T10:06:55.063Z,27.10
2018-06-04T10:09:23.263Z,27.40
2018-06-04T10:11:51.257Z,27.60
2018-06-04T10:14:19.231Z,27.40
2018-06-04T10:16:47.038Z,26.60
2018-06-04T10:21:42.479Z,26.90
2018-06-04T10:24:10.353Z,27.00
2018-06-04T10:26:39.230Z,27.00
2018-06-04T10:29:07.300Z,26.60
2018-06-04T10:31:37.036Z,26.70
2018-06-04T10:34:05.019Z,27.00
2018-06-04T10:36:32.945Z,27.00
2018-06-04T10:39:00.893Z,27.10
2018-06-04T10:41:28.869Z,27.40
2018-06-04T10:48:52.122Z,27.70
2018-06-04T10:51:19.941Z,27.70
2018-06-04T10:53:48.170Z,27.50
2018-06-04T10:56:16.026Z,27.40
2018-06-04T10:58:43.960Z,27.00
2018-06-04T11:01:11.931Z,27.20
2018-06-04T11:03:42.804Z,27.20
2018-06-04T11:06:10.837Z,27.00
2018-06-04T11:08:38.658Z,26.40
2018-06-04T11:11:06.988Z,26.10
2018-06-04T11:13:35.067Z,26.10
2018-06-04T11:16:03.735Z,26.00
2018-06-04T11:18:31.506Z,25.90
2018-06-04T11:20:59.342Z,25.70
2018-06-04T11:25:54.815Z,26.10
2018-06-04T11:28:22.683Z,26.30
2018-06-04T11:30:50.624Z,26.20
2018-06-04T11:33:18.462Z,26.00
2018-06-04T11:38:14.033Z,26.20
2018-06-04T11:40:41.872Z,26.60
2018-06-04T11:43:10.034Z,26.80
2018-06-04T11:48:05.905Z,27.10
2018-06-04T11:50:33.942Z,27.20
2018-06-04T11:53:02.125Z,27.00
2018-06-04T11:55:30.080Z,26.50
2018-06-04T12:00:26.044Z,26.00
2018-06-04T12:02:54.266Z,26.00
2018-06-04T12:05:22.254Z,25.70
2018-06-04T12:12:45.786Z,25.50
2018-06-04T12:15:14.214Z,25.50
2018-06-04T12:17:41.968Z,25.30
2018-06-04T12:20:09.974Z,25.30
2018-06-04T12:22:38.614Z,25.60
2018-06-04T12:25:06.787Z,25.70
2018-06-04T12:27:34.593Z,25.90
2018-06-04T12:32:30.145Z,26.50
2018-06-04T12:34:57.957Z,26.60
2018-06-04T12:37:25.745Z,26.30
2018-06-04T12:44:49.422Z,26.30
2018-06-04T12:47:17.203Z,26.40
2018-06-04T12:54:41.312Z,26.30
2018-06-04T12:57:09.308Z,26.50
2018-06-04T12:59:37.109Z,26.60
2018-06-04T13:02:05.111Z,26.50
2018-06-04T13:04:32.902Z,26.60
2018-06-04T13:07:00.709Z,26.80
2018-06-04T13:09:28.494Z,27.00
2018-06-04T13:11:56.324Z,27.30
2018-06-04T13:14:24.390Z,27.30
2018-06-04T13:16:53.389Z,26.90
2018-06-04T13:19:21.222Z,26.50
2018-06-04T13:21:49.059Z,26.20
2018-06-04T13:24:16.823Z,26.00
2018-06-04T13:26:44.676Z,25.90
2018-06-04T13:29:12.498Z,26.00
2018-06-04T13:31:40.301Z,26.00
2018-06-04T13:34:08.193Z,26.20
2018-06-04T13:39:07.258Z,26.60
2018-06-04T13:41:37.098Z,26.80
2018-06-04T13:44:04.975Z,26.80
2018-06-04T13:46:32.744Z,27.00
2018-06-04T13:49:01.544Z,27.10
2018-06-04T13:53:57.017Z,26.90
2018-06-04T13:56:25.476Z,27.00
2018-06-04T13:58:53.799Z,27.00
2018-06-04T14:01:21.580Z,27.10
2018-06-04T14:03:50.083Z,27.10
2018-06-04T14:06:18.838Z,27.00
2018-06-04T14:08:46.634Z,26.90
2018-06-04T14:11:14.517Z,26.90
2018-06-04T14:13:43.428Z,26.80
2018-06-04T14:16:11.213Z,26.70
2018-06-04T14:18:39.021Z,26.70
2018-06-04T14:21:06.982Z,26.80
2018-06-04T14:26:03.190Z,27.00
2018-06-04T14:28:30.994Z,27.00
2018-06-04T14:30:58.836Z,27.00
2018-06-04T14:33:26.707Z,27.10
2018-06-04T14:35:54.477Z,27.00
2018-06-04T14:40:49.928Z,27.10
2018-06-04T14:43:17.874Z,27.00
2018-06-04T14:48:15.048Z,26.90
2018-06-04T14:50:44.487Z,26.90
2018-06-04T14:53:12.398Z,26.90
2018-06-04T14:55:40.289Z,26.80
2018-06-04T14:58:08.107Z,26.60
2018-06-04T15:00:36.079Z,26.50
2018-06-04T15:03:03.870Z,26.40
2018-06-04T15:10:27.086Z,26.20
2018-06-04T15:12:55.254Z,26.20
2018-06-04T15:15:23.351Z,26.20
2018-06-04T15:17:51.177Z,26.10
2018-06-04T15:22:47.150Z,26.20
2018-06-04T15:25:15.056Z,26.30
2018-06-04T15:30:10.639Z,26.20
2018-06-04T15:32:38.694Z,26.20
2018-06-04T15:35:06.610Z,26.10
2018-06-04T15:37:34.565Z,26.10
2018-06-04T15:40:02.869Z,26.00
2018-06-04T15:42:30.964Z,25.90
2018-06-04T15:47:26.938Z,25.70
2018-06-04T15:49:55.254Z,25.80
2018-06-04T15:52:23.158Z,25.80
2018-06-04T15:54:51.502Z,25.70
2018-06-04T15:57:19.717Z,25.60
2018-06-04T15:59:47.839Z,25.60
2018-06-04T16:02:15.808Z,25.60
2018-06-04T16:04:44.908Z,25.60
2018-06-04T16:07:12.815Z,25.70
2018-06-04T16:12:08.815Z,25.60
2018-06-04T16:14:37.791Z,25.60
2018-06-04T16:17:05.714Z,25.60
2018-06-04T16:19:34.577Z,25.40
2018-06-04T16:22:03.071Z,25.40
2018-06-04T16:26:59.630Z,25.40
2018-06-04T16:29:28.102Z,25.40
2018-06-04T16:34:24.269Z,25.40
2018-06-04T16:36:52.410Z,25.30
2018-06-04T16:44:16.182Z,25.20
2018-06-04T16:46:44.975Z,25.20
2018-06-04T16:49:12.794Z,25.20
2018-06-04T16:51:40.901Z,25.10
2018-06-04T16:54:09.328Z,25.00
2018-06-04T16:59:05.590Z,24.90
2018-06-04T17:01:34.162Z,24.80
2018-06-04T17:04:03.276Z,24.80
2018-06-04T17:06:31.820Z,24.70
2018-06-04T17:09:00.096Z,24.70
2018-06-04T17:13:56.150Z,24.60
2018-06-04T17:18:52.629Z,24.60
2018-06-04T17:21:20.831Z,24.50
2018-06-04T17:23:49.068Z,24.50
2018-06-04T17:26:17.218Z,24.50
2018-06-04T17:28:45.480Z,24.40
2018-06-04T17:33:43.386Z,24.30
2018-06-04T17:36:12.042Z,24.20
2018-06-04T17:38:40.610Z,24.20
2018-06-04T17:41:08.836Z,24.10
2018-06-04T17:43:37.361Z,24.10
2018-06-04T17:46:05.621Z,24.10
2018-06-04T17:48:33.939Z,24.00
2018-06-04T17:51:01.841Z,24.00
2018-06-04T17:53:30.281Z,23.90
2018-06-04T17:55:58.489Z,23.90
2018-06-04T17:58:27.408Z,23.90
2018-06-04T18:00:55.409Z,23.80
2018-06-04T18:03:24.362Z,23.70
2018-06-04T18:05:52.456Z,23.60
2018-06-04T18:08:20.606Z,23.50
2018-06-04T18:10:49.604Z,23.50
2018-06-04T18:13:17.961Z,23.40
2018-06-04T18:15:45.973Z,23.40
2018-06-04T18:18:14.362Z,23.40
2018-06-04T18:20:42.418Z,23.40
2018-06-04T18:23:10.731Z,23.30
2018-06-04T18:25:39.092Z,23.30
2018-06-04T18:28:07.813Z,23.30
2018-06-04T18:30:36.550Z,23.20
2018-06-04T18:33:05.078Z,23.20
2018-06-04T18:35:33.072Z,23.20
2018-06-04T18:38:01.073Z,23.00
2018-06-04T18:40:29.520Z,22.90
2018-06-04T18:42:57.921Z,22.90
2018-06-04T18:45:26.081Z,22.80
2018-06-04T18:47:54.269Z,22.80
2018-06-04T18:50:22.465Z,22.70
2018-06-04T18:52:50.715Z,22.60
2018-06-04T18:55:19.617Z,22.50
2018-06-04T18:57:48.428Z,22.40
2018-06-04T19:00:16.883Z,22.30
2018-06-04T19:02:45.227Z,22.30
2018-06-04T19:05:13.361Z,22.10
2018-06-04T19:10:09.470Z,21.90
2018-06-04T19:12:37.777Z,21.90
2018-06-04T19:15:07.594Z,21.90
2018-06-04T19:20:03.258Z,21.90
2018-06-04T19:22:31.443Z,21.80
2018-06-04T19:24:59.483Z,21.80
2018-06-04T19:27:27.431Z,21.70
2018-06-04T19:32:23.451Z,21.60
2018-06-04T19:34:51.565Z,21.50
2018-06-04T19:37:19.832Z,21.50
2018-06-04T19:39:47.711Z,21.50
2018-06-04T19:42:16.542Z,21.40
2018-06-04T19:44:45.298Z,21.30
2018-06-04T19:47:13.714Z,21.30
2018-06-04T19:49:42.287Z,21.20
2018-06-04T19:52:11.185Z,21.20
2018-06-04T19:54:39.394Z,21.10
2018-06-04T20:02:03.194Z,20.80
2018-06-04T20:06:59.553Z,20.70
2018-06-04T20:09:27.583Z,20.60
2018-06-04T20:11:55.816Z,20.50
2018-06-04T20:14:25.335Z,20.50
2018-06-04T20:16:53.347Z,20.40
2018-06-04T20:19:22.163Z,20.30
2018-06-04T20:21:50.792Z,20.20
2018-06-04T20:24:18.838Z,20.20
2018-06-04T20:26:46.935Z,20.10
2018-06-04T20:29:15.191Z,20.00
2018-06-04T20:31:43.233Z,19.90
2018-06-04T20:34:11.252Z,19.80
2018-06-04T20:36:39.730Z,19.80
2018-06-04T20:39:08.537Z,19.80
2018-06-04T20:41:36.850Z,19.60
2018-06-04T20:44:08.215Z,19.50
2018-06-04T20:46:36.209Z,19.30
2018-06-04T20:49:04.071Z,19.20
2018-06-04T20:51:31.902Z,19.10
2018-06-04T20:53:59.652Z,18.90
2018-06-04T20:56:27.689Z,18.80
2018-06-04T20:58:55.853Z,18.70
2018-06-04T21:01:24.103Z,18.60
2018-06-04T21:03:51.979Z,18.60
2018-06-04T21:06:20.183Z,18.60
2018-06-04T21:08:48.000Z,18.50
2018-06-04T21:11:16.193Z,18.40
2018-06-04T21:13:44.001Z,18.30
2018-06-04T21:16:12.237Z,18.20
2018-06-04T21:18:40.289Z,18.20
2018-06-04T21:21:08.218Z,18.00
2018-06-04T21:28:32.307Z,17.80
2018-06-04T21:31:00.409Z,17.80
2018-06-04T21:33:28.329Z,17.70
2018-06-04T21:35:56.604Z,17.70
2018-06-04T21:38:24.611Z,17.60
2018-06-04T21:43:21.429Z,17.60
2018-06-04T21:45:49.470Z,17.50
2018-06-04T21:48:17.363Z,17.40
2018-06-04T21:50:45.708Z,17.40
2018-06-04T21:53:14.044Z,17.40
2018-06-04T21:55:42.095Z,17.30
2018-06-04T21:58:10.422Z,17.30
2018-06-04T22:00:38.990Z,17.20
2018-06-04T22:05:34.655Z,16.90
2018-06-04T22:08:02.676Z,16.80
2018-06-04T22:10:30.930Z,16.70
2018-06-04T22:12:58.812Z,16.70
2018-06-04T22:15:27.359Z,16.60
2018-06-04T22:17:55.403Z,16.40
2018-06-04T22:20:23.569Z,16.40
2018-06-04T22:22:51.767Z,16.40
2018-06-04T22:25:19.596Z,16.30
2018-06-04T22:30:15.445Z,16.20
2018-06-04T22:32:43.832Z,16.10
2018-06-04T22:35:11.773Z,16.10
2018-06-04T22:37:39.915Z,16.00
2018-06-04T22:40:07.774Z,16.00
2018-06-04T22:42:35.742Z,15.90
2018-06-04T22:45:03.963Z,15.90
2018-06-04T22:47:31.951Z,15.80
2018-06-04T22:49:59.889Z,15.80
2018-06-04T22:54:55.621Z,15.80
2018-06-04T22:59:51.343Z,15.70
2018-06-04T23:04:47.361Z,15.50
2018-06-04T23:07:15.291Z,15.40
2018-06-04T23:09:43.235Z,15.40
2018-06-04T23:12:11.343Z,15.30
2018-06-04T23:14:40.383Z,15.20
2018-06-04T23:22:04.988Z,15.20
2018-06-04T23:29:52.082Z,15.10
2018-06-04T23:32:19.929Z,15.10
2018-06-04T23:34:47.919Z,15.00
2018-06-04T23:37:15.903Z,14.90
2018-06-04T23:39:43.695Z,14.80
2018-06-04T23:42:11.773Z,14.70
2018-06-04T23:44:39.782Z,14.70
2018-06-04T23:47:07.822Z,14.60
2018-06-04T23:49:35.764Z,14.60
2018-06-04T23:52:03.564Z,14.50
2018-06-04T23:56:59.381Z,14.50
2018-06-04T23:59:27.800Z,14.50
